Time;durP1;ratioP1;P1;durP2;ratioP2;P2;SDS_P1;SDS_P2;PMS_P1;PMS_P2;Temp;Humidity;BMP_temperature;BMP_pressure;BME280_temperature;BME280_humidity;BME280_pressure;Samples;Min_cycle;Max_cycle;Signal;HPM_P1;HPM_P2
2022/01/14 00:01:40;;;;;;;308.45;40.95;;;;;;;1.60;100.00;103790.88;5345432;27;20133;-85
2022/01/14 00:04:12;;;;;;;234.98;39.33;;;;;;;1.57;100.00;103788.25;5348221;27;20069;-85
2022/01/14 00:06:43;;;;;;;224.82;35.15;;;;;;;1.56;100.00;103798.78;5347686;27;20020;-85
2022/01/14 00:09:16;;;;;;;246.45;37.78;;;;;;;1.55;100.00;103802.31;5350774;27;20051;-84
2022/01/14 00:11:53;;;;;;;181.13;31.98;;;;;;;1.41;100.00;103789.28;5347423;27;20034;-86
2022/01/14 00:14:39;;;;;;;214.77;36.67;;;;;;;1.40;100.00;103798.88;5349104;27;20027;-85
2022/01/14 00:17:14;;;;;;;186.45;34.10;;;;;;;1.37;100.00;103800.66;5340898;27;20426;-85
2022/01/14 00:19:45;;;;;;;177.30;31.60;;;;;;;1.34;100.00;103788.44;5346325;27;20081;-85
2022/01/14 00:22:18;;;;;;;217.18;34.92;;;;;;;1.35;100.00;103791.94;5345582;27;20036;-86
2022/01/14 00:33:16;;;;;;;171.05;29.65;;;;;;;1.23;100.00;103778.00;5344920;27;20511;-86
2022/01/14 00:35:47;;;;;;;206.33;40.63;;;;;;;1.30;100.00;103777.06;5347212;27;20031;-86
2022/01/14 00:38:19;;;;;;;183.50;32.95;;;;;;;1.20;100.00;103770.09;5347692;27;20765;-86
2022/01/14 00:40:50;;;;;;;197.98;32.22;;;;;;;1.20;100.00;103775.38;5347214;27;20031;-86
2022/01/14 00:43:22;;;;;;;177.27;33.72;;;;;;;1.22;100.00;103772.72;5347348;27;20168;-86
2022/01/14 00:45:55;;;;;;;200.82;38.60;;;;;;;1.25;100.00;103776.22;5345758;27;20028;-86
2022/01/14 00:48:27;;;;;;;220.52;37.05;;;;;;;1.18;100.00;103757.88;5347250;27;20024;-86
2022/01/14 00:50:58;;;;;;;213.75;36.67;;;;;;;1.17;100.00;103740.34;5347556;27;20088;-86
2022/01/14 00:53:30;;;;;;;183.95;30.48;;;;;;;1.14;100.00;103738.63;5346603;27;20028;-86
2022/01/14 00:56:20;;;;;;;191.05;32.35;;;;;;;1.26;100.00;103742.88;5348195;27;20028;-86
2022/01/14 01:01:56;;;;;;;187.70;28.98;;;;;;;1.23;100.00;103727.16;5344066;27;20047;-86
2022/01/14 01:04:33;;;;;;;175.77;33.15;;;;;;;1.23;100.00;103735.91;5348548;27;20028;-86
2022/01/14 01:07:08;;;;;;;219.45;41.55;;;;;;;1.28;100.00;103728.88;5349008;27;20468;-87
2022/01/14 01:09:45;;;;;;;269.30;37.53;;;;;;;1.13;100.00;103723.72;5349236;27;20027;-86
2022/01/14 01:12:36;;;;;;;217.52;33.78;;;;;;;1.17;100.00;103733.31;5349201;27;20043;-86
2022/01/14 01:15:12;;;;;;;210.82;32.85;;;;;;;1.17;100.00;103733.31;5348966;27;20030;-86
2022/01/14 01:17:44;;;;;;;246.50;38.75;;;;;;;1.18;100.00;103728.94;5347761;27;20026;-86
2022/01/14 01:20:18;;;;;;;255.25;35.28;;;;;;;1.17;100.00;103721.94;5347922;27;20399;-84
2022/01/14 01:22:51;;;;;;;238.45;37.08;;;;;;;1.14;100.00;103707.06;5346408;27;20039;-87
2022/01/14 01:25:26;;;;;;;228.90;39.05;;;;;;;1.16;100.00;103717.53;5343640;27;20164;-85
2022/01/14 01:28:00;;;;;;;249.10;33.25;;;;;;;1.15;100.00;103727.19;5347951;27;20073;-85
2022/01/14 01:33:06;;;;;;;270.88;34.78;;;;;;;1.05;100.00;103722.88;5346483;27;20460;-84
2022/01/14 01:35:37;;;;;;;244.15;30.95;;;;;;;1.00;100.00;103716.78;5345997;27;20028;-85
2022/01/14 01:38:15;;;;;;;239.50;34.10;;;;;;;0.83;100.00;103698.50;5346407;27;20024;-85
2022/01/14 01:40:48;;;;;;;196.18;29.80;;;;;;;0.95;100.00;103719.47;5346300;27;20019;-85
2022/01/14 01:43:25;;;;;;;191.70;32.50;;;;;;;0.88;100.00;103704.59;5346410;27;20055;-85
2022/01/14 01:45:58;;;;;;;231.20;33.75;;;;;;;1.01;100.00;103715.91;5345866;27;20026;-86
2022/01/14 01:48:30;;;;;;;183.55;37.15;;;;;;;1.08;100.00;103713.22;5346078;27;20027;-85
2022/01/14 01:51:04;;;;;;;211.20;28.25;;;;;;;0.96;100.00;103700.16;5346454;27;20026;-85
2022/01/14 01:53:36;;;;;;;216.15;34.30;;;;;;;0.94;100.00;103705.41;5346894;27;20119;-86
2022/01/14 01:56:07;;;;;;;161.40;26.80;;;;;;;0.88;100.00;103686.22;5347133;27;20446;-86
2022/01/14 01:58:42;;;;;;;181.88;35.30;;;;;;;1.03;100.00;103704.47;5346274;27;20107;-85
2022/01/14 02:01:14;;;;;;;182.52;34.35;;;;;;;1.00;100.00;103706.25;5346481;27;20380;-85
2022/01/14 02:03:45;;;;;;;184.00;34.53;;;;;;;1.03;100.00;103714.13;5345104;27;20048;-85
2022/01/14 02:06:19;;;;;;;209.18;42.42;;;;;;;1.10;100.00;103698.28;5344540;27;20035;-86
2022/01/14 02:08:51;;;;;;;246.63;34.90;;;;;;;1.01;100.00;103706.25;5346738;27;20024;-86
2022/01/14 02:11:22;;;;;;;203.85;33.65;;;;;;;0.95;100.00;103701.06;5346520;27;20036;-85
2022/01/14 02:13:57;;;;;;;201.90;33.65;;;;;;;0.89;100.00;103706.34;5346421;27;20027;-85
2022/01/14 02:16:35;;;;;;;181.18;33.65;;;;;;;0.94;100.00;103701.91;5345718;27;20023;-86
2022/01/14 02:19:17;;;;;;;175.90;30.25;;;;;;;0.86;100.00;103690.56;5346483;27;20058;-85
2022/01/14 02:27:16;;;;;;;174.43;28.85;;;;;;;0.68;100.00;103687.19;5345503;27;20089;-85
2022/01/14 02:29:48;;;;;;;193.93;35.92;;;;;;;0.88;100.00;103681.81;5346845;27;20032;-85
2022/01/14 02:32:19;;;;;;;220.60;31.65;;;;;;;0.85;100.00;103680.97;5346349;27;20030;-85
2022/01/14 02:34:51;;;;;;;198.27;37.85;;;;;;;1.02;100.00;103678.22;5345731;27;20376;-85
2022/01/14 02:37:23;;;;;;;209.13;33.17;;;;;;;0.82;100.00;103667.84;5345146;27;20411;-85
2022/01/14 02:39:54;;;;;;;168.30;28.65;;;;;;;0.84;100.00;103681.84;5344745;27;20083;-84
2022/01/14 02:42:26;;;;;;;216.25;37.95;;;;;;;1.03;100.00;103675.56;5343214;27;20106;-84
2022/01/14 02:45:02;;;;;;;170.57;33.83;;;;;;;0.98;100.00;103674.72;5340440;27;20189;-84
2022/01/14 02:47:34;;;;;;;232.30;37.05;;;;;;;0.96;100.00;103665.97;5342718;27;20425;-85
2022/01/14 02:50:13;;;;;;;201.55;30.92;;;;;;;0.95;100.00;103685.28;5340290;27;20081;-85
2022/01/14 02:52:57;;;;;;;202.45;28.50;;;;;;;0.71;100.00;103670.53;5344669;27;20591;-85
2022/01/14 02:55:30;;;;;;;208.20;32.80;;;;;;;0.76;100.00;103660.88;5343568;27;20490;-85
2022/01/14 02:58:02;;;;;;;184.73;35.38;;;;;;;1.04;100.00;103672.06;5341474;27;20030;-85
2022/01/14 03:00:34;;;;;;;174.70;26.55;;;;;;;0.97;100.00;103672.13;5339419;27;20016;-85
2022/01/14 03:03:06;;;;;;;196.38;30.83;;;;;;;0.91;100.00;103659.88;5345266;27;20040;-84
2022/01/14 03:05:38;;;;;;;172.55;35.80;;;;;;;1.20;100.00;103675.44;5352220;27;20395;-85
2022/01/14 03:08:10;;;;;;;185.55;33.38;;;;;;;1.15;100.00;103679.00;5345347;27;20023;-85
2022/01/14 03:10:42;;;;;;;198.55;33.90;;;;;;;1.16;100.00;103681.63;5343175;27;20459;-85
2022/01/14 03:13:14;;;;;;;162.32;32.53;;;;;;;1.04;100.00;103679.94;5343471;27;20072;-85
2022/01/14 03:15:46;;;;;;;193.52;29.15;;;;;;;0.97;100.00;103654.59;5344846;27;20027;-85
2022/01/14 03:18:23;;;;;;;215.55;30.65;;;;;;;1.03;100.00;103672.94;5343912;27;20621;-85
2022/01/14 03:21:08;;;;;;;214.80;29.95;;;;;;;0.96;100.00;103671.25;5344808;27;20149;-85
2022/01/14 03:23:47;;;;;;;197.45;26.30;;;;;;;0.80;100.00;103669.59;5343232;27;20404;-85
2022/01/14 03:26:21;;;;;;;203.68;26.60;;;;;;;0.75;100.00;103674.88;5348194;27;20076;-85
2022/01/14 03:28:52;;;;;;;203.25;26.63;;;;;;;0.71;100.00;103662.66;5345105;27;20126;-85
2022/01/14 03:31:27;;;;;;;180.40;28.30;;;;;;;0.71;100.00;103665.28;5352404;27;20357;-85
2022/01/14 03:33:58;;;;;;;185.98;26.75;;;;;;;0.64;100.00;103660.94;5352470;27;20033;-86
2022/01/14 03:36:29;;;;;;;198.45;26.05;;;;;;;0.60;100.00;103670.59;5355069;27;20519;-85
2022/01/14 03:39:01;;;;;;;199.93;26.92;;;;;;;0.61;100.00;103667.06;5356162;27;20024;-85
2022/01/14 03:41:33;;;;;;;248.40;29.92;;;;;;;0.53;100.00;103664.50;5362406;27;20020;-85
2022/01/14 03:44:05;;;;;;;256.50;30.50;;;;;;;0.59;100.00;103662.72;5357887;27;20039;-85
2022/01/14 03:46:36;;;;;;;220.23;27.45;;;;;;;0.63;100.00;103665.34;5351243;27;20399;-84
2022/01/14 03:49:08;;;;;;;226.65;29.75;;;;;;;0.62;100.00;103649.59;5352167;27;20055;-84
2022/01/14 03:51:41;;;;;;;237.07;32.25;;;;;;;0.63;100.00;103646.94;5347901;27;20076;-85
2022/01/14 03:54:13;;;;;;;177.27;30.55;;;;;;;0.70;100.00;103650.38;5349355;27;20032;-84
2022/01/14 03:56:44;;;;;;;190.80;31.80;;;;;;;0.89;100.00;103659.03;5352495;27;20388;-85
2022/01/14 03:59:16;;;;;;;180.38;31.70;;;;;;;1.05;100.00;103668.56;5351842;27;20024;-85
2022/01/14 04:01:47;;;;;;;214.15;33.80;;;;;;;0.94;100.00;103652.84;5352020;27;20055;-84
2022/01/14 04:04:19;;;;;;;189.50;31.40;;;;;;;1.15;100.00;103676.38;5351242;27;20130;-85
2022/01/14 04:06:50;;;;;;;195.95;32.70;;;;;;;1.29;100.00;103666.63;5350440;27;20035;-85
2022/01/14 04:09:21;;;;;;;215.25;31.17;;;;;;;1.21;100.00;103673.69;5353338;27;20030;-85
2022/01/14 04:11:53;;;;;;;194.93;32.10;;;;;;;1.03;100.00;103659.78;5351614;27;20447;-85
2022/01/14 04:16:57;;;;;;;249.82;30.23;;;;;;;1.05;100.00;103657.16;5350529;27;20080;-84
2022/01/14 04:19:29;;;;;;;200.43;27.63;;;;;;;0.81;100.00;103650.31;5352322;27;20105;-85
2022/01/14 04:22:01;;;;;;;221.55;26.08;;;;;;;0.72;100.00;103649.50;5353183;27;20034;-85
2022/01/14 04:24:32;;;;;;;162.15;26.40;;;;;;;0.80;100.00;103656.47;5349583;27;20114;-85
2022/01/14 04:27:04;;;;;;;259.67;25.00;;;;;;;0.58;100.00;103659.25;5353373;27;20032;-85
2022/01/14 04:29:35;;;;;;;261.83;26.25;;;;;;;0.53;100.00;103647.88;5352479;27;20108;-85
2022/01/14 04:32:07;;;;;;;220.15;25.00;;;;;;;0.54;100.00;103658.38;5351478;27;20028;-85
2022/01/14 04:34:38;;;;;;;218.60;24.05;;;;;;;0.55;100.00;103654.00;5354219;27;20379;-86
2022/01/14 04:37:10;;;;;;;237.57;24.70;;;;;;;0.52;100.00;103646.13;5351916;27;20038;-84
2022/01/14 04:39:41;;;;;;;207.88;24.38;;;;;;;0.49;100.00;103648.75;5352537;27;20019;-85
2022/01/14 04:42:12;;;;;;;266.20;27.98;;;;;;;0.30;100.00;103621.72;5355103;27;20038;-84
2022/01/14 04:44:44;;;;;;;268.15;26.52;;;;;;;0.34;100.00;103640.09;5355009;27;20391;-85
2022/01/14 04:47:18;;;;;;;259.15;27.33;;;;;;;0.30;100.00;103635.75;5354089;27;20016;-84
2022/01/14 04:49:50;;;;;;;264.77;27.85;;;;;;;0.32;100.00;103627.88;5353145;27;20053;-84
2022/01/14 04:52:22;;;;;;;212.68;25.00;;;;;;;0.21;100.00;103608.66;5352813;27;20111;-84
2022/01/14 04:54:55;;;;;;;272.55;28.02;;;;;;;0.23;100.00;103631.41;5354809;27;20030;-85
2022/01/14 04:57:26;;;;;;;224.25;28.08;;;;;;;0.30;100.00;103627.88;5354615;27;20032;-85
2022/01/14 04:59:58;;;;;;;204.85;24.80;;;;;;;0.35;100.00;103625.19;5350432;27;20019;-86
2022/01/14 05:02:29;;;;;;;216.43;25.40;;;;;;;0.32;100.00;103601.59;5353601;27;20044;-85
2022/01/14 05:05:02;;;;;;;267.75;27.08;;;;;;;0.28;100.00;103607.75;5352760;27;20030;-85
2022/01/14 05:07:34;;;;;;;238.63;27.60;;;;;;;0.34;100.00;103608.59;5351181;27;20020;-85
2022/01/14 05:10:17;;;;;;;215.27;25.67;;;;;;;0.34;100.00;103607.72;5346986;27;20020;-86
2022/01/14 05:12:49;;;;;;;219.32;27.65;;;;;;;0.37;100.00;103608.56;5345269;27;20035;-85
2022/01/14 05:15:20;;;;;;;188.05;24.83;;;;;;;0.42;100.00;103611.19;5350811;27;20023;-86
2022/01/14 05:17:52;;;;;;;221.15;26.98;;;;;;;0.29;100.00;103602.47;5354140;27;20030;-85
2022/01/14 05:20:23;;;;;;;170.30;23.58;;;;;;;0.29;100.00;103596.38;5356611;27;20499;-85
2022/01/14 05:22:55;;;;;;;201.00;25.75;;;;;;;0.27;100.00;103596.38;5355903;27;20046;-85
2022/01/14 05:25:26;;;;;;;191.65;26.50;;;;;;;0.35;100.00;103604.19;5357261;27;20467;-86
2022/01/14 05:27:58;;;;;;;212.70;25.52;;;;;;;0.28;100.00;103594.59;5354865;27;20035;-85
2022/01/14 05:30:29;;;;;;;173.23;25.73;;;;;;;0.32;100.00;103599.84;5349928;27;20132;-85
2022/01/14 05:33:01;;;;;;;170.20;25.92;;;;;;;0.30;100.00;103593.72;5350345;27;20468;-85
2022/01/14 05:35:33;;;;;;;185.95;27.45;;;;;;;0.37;100.00;103589.31;5349654;27;20638;-86
2022/01/14 05:38:05;;;;;;;162.80;25.50;;;;;;;0.27;100.00;103585.88;5345390;27;20027;-86
2022/01/14 05:40:36;;;;;;;141.85;24.55;;;;;;;0.49;100.00;103591.88;5349408;27;20027;-86
2022/01/14 05:43:07;;;;;;;185.63;26.27;;;;;;;0.24;100.00;103601.63;5351285;27;20102;-85
2022/01/14 05:45:39;;;;;;;173.63;26.15;;;;;;;0.52;100.00;103598.84;5350091;27;20034;-85
2022/01/14 05:48:10;;;;;;;161.13;26.52;;;;;;;0.59;100.00;103587.41;5350837;27;20024;-85
2022/01/14 05:50:42;;;;;;;176.02;28.23;;;;;;;0.54;100.00;103584.84;5351974;27;20028;-85
2022/01/14 05:53:13;;;;;;;181.45;26.35;;;;;;;0.43;100.00;103588.41;5353346;27;20826;-86
2022/01/14 05:55:44;;;;;;;148.02;25.90;;;;;;;0.34;100.00;103574.44;5353521;27;20048;-87
2022/01/14 05:58:16;;;;;;;191.60;27.38;;;;;;;0.40;100.00;103593.69;5348862;27;20062;-85
2022/01/14 06:00:47;;;;;;;218.82;29.55;;;;;;;0.10;100.00;103571.97;5352357;27;20031;-85
2022/01/14 06:03:19;;;;;;;199.98;28.45;;;;;;;0.17;100.00;103584.16;5350292;27;20044;-85
2022/01/14 06:05:50;;;;;;;152.15;24.67;;;;;;;0.09;100.00;103578.06;5350040;27;20425;-86
2022/01/14 06:08:22;;;;;;;177.02;27.08;;;;;;;0.07;100.00;103588.59;5352112;27;20019;-85
2022/01/14 06:10:53;;;;;;;155.68;25.77;;;;;;;0.03;100.00;103575.50;5347470;27;20035;-85
2022/01/14 06:13:25;;;;;;;165.38;24.58;;;;;;;-0.01;100.00;103590.38;5343126;27;20027;-86
2022/01/14 06:15:57;;;;;;;158.65;25.50;;;;;;;-0.02;100.00;103592.16;5343780;27;20400;-85
2022/01/14 06:18:28;;;;;;;160.45;26.90;;;;;;;-0.06;100.00;103600.88;5342295;27;20018;-85
2022/01/14 06:21:00;;;;;;;159.63;24.20;;;;;;;0.01;100.00;103598.25;5345270;27;20027;-85
2022/01/14 06:23:32;;;;;;;179.45;27.05;;;;;;;-0.03;100.00;103606.13;5344039;27;20119;-86
2022/01/14 06:26:04;;;;;;;202.75;29.27;;;;;;;-0.01;100.00;103591.25;5348069;27;20035;-85
2022/01/14 06:28:35;;;;;;;159.40;26.40;;;;;;;-0.03;100.00;103603.50;5347097;27;20024;-86
2022/01/14 06:31:07;;;;;;;146.88;26.08;;;;;;;0.04;100.00;103598.25;5348460;27;20053;-86
2022/01/14 06:33:38;;;;;;;146.85;26.88;;;;;;;-0.03;100.00;103593.00;5348700;27;20087;-86
2022/01/14 06:36:10;;;;;;;145.93;25.80;;;;;;;-0.03;100.00;103605.28;5348629;27;20028;-86
2022/01/14 06:38:41;;;;;;;175.32;27.77;;;;;;;-0.03;100.00;103592.16;5347994;27;20047;-87
2022/01/14 06:41:13;;;;;;;128.73;23.73;;;;;;;-0.08;100.00;103581.66;5349898;27;20028;-86
2022/01/14 06:43:44;;;;;;;161.38;26.35;;;;;;;0.04;100.00;103595.63;5347651;27;20115;-85
2022/01/14 06:46:17;;;;;;;137.27;25.13;;;;;;;-0.02;100.00;103586.91;5345223;27;20110;-86
2022/01/14 06:48:48;;;;;;;213.77;28.85;;;;;;;-0.06;100.00;103589.53;5348028;27;20028;-86
2022/01/14 06:51:19;;;;;;;198.52;28.38;;;;;;;-0.07;100.00;103577.28;5347591;27;20031;-85
2022/01/14 06:53:51;;;;;;;176.85;27.20;;;;;;;-0.04;100.00;103587.78;5347390;27;20027;-86
2022/01/14 06:56:22;;;;;;;180.63;26.60;;;;;;;-0.11;100.00;103578.19;5353649;27;20032;-86
2022/01/14 06:58:54;;;;;;;182.77;27.55;;;;;;;-0.15;100.00;103585.19;5361758;27;20032;-85
2022/01/14 07:01:25;;;;;;;170.23;27.10;;;;;;;-0.17;100.00;103578.22;5356547;27;20023;-84
2022/01/14 07:04:03;;;;;;;279.15;32.95;;;;;;;-0.15;100.00;103594.81;5365727;27;20570;-85
2022/01/14 07:06:35;;;;;;;199.35;28.83;;;;;;;-0.29;100.00;103579.13;5360999;27;20030;-85
2022/01/14 07:09:06;;;;;;;217.75;30.38;;;;;;;-0.30;100.00;103594.00;5357035;27;20043;-85
2022/01/14 07:11:38;;;;;;;211.93;27.67;;;;;;;-0.42;100.00;103583.53;5347001;27;20019;-85
2022/01/14 07:14:10;;;;;;;225.63;30.00;;;;;;;-0.31;100.00;103605.38;5361544;27;20102;-85
2022/01/14 07:16:41;;;;;;;196.60;28.77;;;;;;;-0.46;100.00;103580.03;5357646;27;20494;-85
2022/01/14 07:19:15;;;;;;;219.50;28.65;;;;;;;-0.48;100.00;103580.94;5353294;27;20019;-85
2022/01/14 07:21:47;;;;;;;246.77;30.13;;;;;;;-0.27;100.00;103614.09;5350763;27;20032;-84
2022/01/14 07:24:19;;;;;;;282.85;32.70;;;;;;;-0.30;100.00;103608.84;5349155;27;20092;-85
2022/01/14 07:26:50;;;;;;;183.77;27.23;;;;;;;-0.22;100.00;103621.06;5349691;27;20032;-85
2022/01/14 07:29:22;;;;;;;230.40;30.35;;;;;;;-0.38;100.00;103585.28;5350559;27;20475;-85
2022/01/14 07:31:53;;;;;;;262.38;32.17;;;;;;;-0.22;100.00;103614.97;5350637;27;20380;-85
2022/01/14 07:34:25;;;;;;;243.18;34.40;;;;;;;-0.21;100.00;103608.81;5350310;27;20131;-84
2022/01/14 07:36:57;;;;;;;281.90;33.05;;;;;;;-0.38;100.00;103598.38;5350435;27;20016;-85
2022/01/14 07:39:29;;;;;;;249.88;31.95;;;;;;;-0.34;100.00;103609.75;5350515;27;20028;-85
2022/01/14 07:42:00;;;;;;;285.15;32.33;;;;;;;-0.43;100.00;103593.16;5350854;27;20035;-85
2022/01/14 07:44:32;;;;;;;292.92;35.35;;;;;;;-0.43;100.00;103598.38;5349721;27;20036;-85
2022/01/14 07:47:04;;;;;;;229.73;33.03;;;;;;;-0.36;100.00;103603.63;5350571;27;20084;-85
2022/01/14 07:49:35;;;;;;;238.23;32.55;;;;;;;-0.29;100.00;103605.38;5350641;27;20092;-85
2022/01/14 07:52:07;;;;;;;322.55;39.63;;;;;;;-0.45;100.00;103594.91;5348595;27;20028;-85
2022/01/14 07:54:38;;;;;;;225.52;32.65;;;;;;;-0.30;100.00;103603.59;5349887;27;20486;-85
2022/01/14 07:57:10;;;;;;;294.98;35.22;;;;;;;-0.33;100.00;103598.34;5347901;27;20032;-85
2022/01/14 07:59:41;;;;;;;279.08;39.42;;;;;;;-0.36;100.00;103601.88;5347885;27;20096;-85
2022/01/14 08:02:13;;;;;;;256.65;34.90;;;;;;;-0.27;100.00;103600.97;5349245;27;20075;-85
2022/01/14 08:04:45;;;;;;;289.40;36.55;;;;;;;-0.32;100.00;103590.47;5349956;27;20027;-85
2022/01/14 08:07:22;;;;;;;272.67;36.60;;;;;;;-0.24;100.00;103604.47;5348914;27;20491;-85
2022/01/14 08:09:53;;;;;;;238.40;38.05;;;;;;;-0.32;100.00;103587.00;5347463;27;20024;-86
2022/01/14 08:12:25;;;;;;;233.73;35.10;;;;;;;-0.22;100.00;103613.19;5348989;27;20027;-85
2022/01/14 08:14:58;;;;;;;224.30;35.25;;;;;;;-0.20;100.00;103615.81;5348032;27;20035;-85
2022/01/14 08:17:29;;;;;;;255.27;36.28;;;;;;;-0.11;100.00;103623.66;5346173;27;20031;-86
2022/01/14 08:20:01;;;;;;;229.30;35.92;;;;;;;-0.08;100.00;103605.28;5347829;27;20031;-86
2022/01/14 08:22:34;;;;;;;311.67;42.80;;;;;;;-0.12;100.00;103608.81;5347922;27;20479;-86
2022/01/14 08:25:05;;;;;;;223.27;39.53;;;;;;;-0.14;100.00;103601.78;5348618;27;20024;-86
2022/01/14 08:27:37;;;;;;;297.27;44.33;;;;;;;-0.17;100.00;103593.97;5347852;27;20077;-86
2022/01/14 08:30:09;;;;;;;224.00;36.72;;;;;;;-0.12;100.00;103598.31;5348420;27;20483;-86
2022/01/14 08:32:41;;;;;;;211.40;34.88;;;;;;;-0.05;100.00;103607.91;5347921;27;20066;-85
2022/01/14 08:35:12;;;;;;;303.52;39.17;;;;;;;0.03;100.00;103602.59;5347651;27;20031;-85
2022/01/14 08:37:44;;;;;;;270.20;38.20;;;;;;;0.08;100.00;103603.47;5348806;27;20020;-86
2022/01/14 08:40:15;;;;;;;240.27;40.20;;;;;;;0.05;100.00;103590.34;5347833;27;20058;-85
2022/01/14 08:42:52;;;;;;;311.63;40.17;;;;;;;0.18;100.00;103592.03;5348569;27;20035;-85
2022/01/14 08:45:24;;;;;;;251.07;37.38;;;;;;;0.16;100.00;103598.19;5347671;27;20024;-86
2022/01/14 08:47:56;;;;;;;237.63;37.05;;;;;;;0.41;100.00;103624.31;5348343;27;20039;-86
2022/01/14 08:50:35;;;;;;;192.70;34.47;;;;;;;0.44;100.00;103619.03;5347882;27;20797;-86
2022/01/14 08:53:09;;;;;;;302.13;40.03;;;;;;;0.47;100.00;103625.13;5345956;27;20027;-86
2022/01/14 08:55:41;;;;;;;337.52;45.60;;;;;;;0.53;100.00;103624.25;5348344;27;20034;-86
2022/01/14 08:58:13;;;;;;;183.20;34.35;;;;;;;0.65;100.00;103605.78;5348172;27;20032;-85
2022/01/14 09:00:44;;;;;;;243.65;39.13;;;;;;;0.59;100.00;103592.66;5346041;27;20035;-86
2022/01/14 09:03:16;;;;;;;237.15;39.42;;;;;;;0.67;100.00;103593.50;5340096;27;20474;-86
2022/01/14 09:05:47;;;;;;;198.65;36.78;;;;;;;0.78;100.00;103590.78;5348853;27;20119;-84
2022/01/14 09:08:19;;;;;;;203.93;37.10;;;;;;;0.86;100.00;103588.09;5349059;27;20016;-86
2022/01/14 09:10:50;;;;;;;192.65;40.22;;;;;;;1.05;100.00;103607.22;5347137;27;20036;-86
2022/01/14 09:13:22;;;;;;;238.45;40.15;;;;;;;0.89;100.00;103581.03;5350461;27;20090;-86
2022/01/14 09:15:53;;;;;;;244.07;40.65;;;;;;;0.95;100.00;103609.06;5349855;27;20020;-86
2022/01/14 09:18:25;;;;;;;175.48;38.15;;;;;;;1.13;100.00;103606.25;5347378;27;20061;-85
2022/01/14 09:20:58;;;;;;;314.67;42.97;;;;;;;1.18;100.00;103608.00;5345843;27;20456;-85
2022/01/14 09:23:33;;;;;;;191.70;37.00;;;;;;;1.13;100.00;103594.88;5345132;27;20020;-86
2022/01/14 09:26:04;;;;;;;282.35;44.05;;;;;;;1.22;100.00;103614.97;5346577;27;20103;-86
2022/01/14 09:28:36;;;;;;;233.55;38.65;;;;;;;1.16;100.00;103601.84;5347957;27;20114;-86
2022/01/14 09:31:07;;;;;;;308.35;43.53;;;;;;;1.27;100.00;103618.41;5347545;27;20052;-86
2022/01/14 09:33:39;;;;;;;205.02;40.60;;;;;;;1.13;100.00;103601.00;5347804;27;20041;-86
2022/01/14 09:36:11;;;;;;;160.25;35.17;;;;;;;1.43;100.00;103617.38;5349121;27;20016;-86
2022/01/14 09:38:42;;;;;;;212.80;40.17;;;;;;;1.28;100.00;103615.78;5345040;27;20492;-85
2022/01/14 09:41:17;;;;;;;235.40;41.05;;;;;;;1.16;100.00;103593.97;5327228;28;20032;-86
2022/01/14 09:43:49;;;;;;;158.40;37.17;;;;;;;1.31;100.00;103618.38;5331316;27;20032;-86
2022/01/14 09:46:20;;;;;;;165.75;39.28;;;;;;;1.47;100.00;103621.75;5347794;27;20355;-85
2022/01/14 09:48:52;;;;;;;135.48;37.63;;;;;;;1.68;100.00;103604.84;5348110;27;20028;-85
2022/01/14 09:51:24;;;;;;;156.27;38.60;;;;;;;2.06;100.00;103621.06;5347327;27;20472;-84
2022/01/14 09:53:55;;;;;;;206.23;43.03;;;;;;;2.22;100.00;103609.44;5337432;27;20032;-85
2022/01/14 09:56:27;;;;;;;126.88;38.05;;;;;;;2.46;100.00;103617.91;5330173;27;20016;-85
2022/01/14 09:58:59;;;;;;;227.27;44.92;;;;;;;2.38;100.00;103614.50;5347865;27;20031;-85
2022/01/14 10:01:39;;;;;;;186.63;41.00;;;;;;;2.40;100.00;103616.25;5346722;27;20065;-84
2022/01/14 10:04:22;;;;;;;152.10;37.45;;;;;;;2.62;100.00;103634.38;5346962;27;20035;-85
2022/01/14 10:06:57;;;;;;;124.28;36.55;;;;;;;2.54;100.00;103620.41;5345452;27;20037;-85
2022/01/14 10:09:39;;;;;;;195.20;42.05;;;;;;;2.47;100.00;103632.81;5347057;27;20016;-85
2022/01/14 10:12:16;;;;;;;192.18;38.33;;;;;;;2.35;100.00;103630.34;5345537;27;20538;-85
2022/01/14 10:15:08;;;;;;;137.10;34.42;;;;;;;2.42;100.00;103639.91;5335583;27;20034;-85
2022/01/14 10:17:43;;;;;;;138.77;35.33;;;;;;;2.41;100.00;103649.56;5346253;27;20553;-85
2022/01/14 10:20:15;;;;;;;111.35;35.80;;;;;;;2.26;100.00;103633.97;5325969;27;20511;-85
2022/01/14 10:22:48;;;;;;;94.63;32.85;;;;;;;2.29;100.00;103643.63;5326302;27;20038;-85
2022/01/14 10:25:20;;;;;;;122.15;31.60;;;;;;;2.33;100.00;103642.66;5326865;27;20048;-86
2022/01/14 10:27:54;;;;;;;131.15;33.95;;;;;;;2.26;100.00;103639.25;5343629;27;20024;-86
2022/01/14 10:30:28;;;;;;;117.78;33.03;;;;;;;2.16;100.00;103635.00;5347383;27;20506;-86
2022/01/14 10:33:06;;;;;;;101.18;31.92;;;;;;;2.27;100.00;103633.94;5346010;27;20120;-86
2022/01/14 10:35:43;;;;;;;99.13;32.20;;;;;;;2.21;100.00;103641.06;5347799;27;20165;-86
2022/01/14 10:38:17;;;;;;;115.57;34.03;;;;;;;2.26;100.00;103632.22;5333264;27;20039;-85
2022/01/14 10:40:53;;;;;;;112.63;33.53;;;;;;;2.05;100.00;103614.94;5350852;27;20012;-86
2022/01/14 10:43:33;;;;;;;94.53;33.15;;;;;;;2.31;100.00;103618.97;5351681;27;20035;-86
2022/01/14 10:46:07;;;;;;;93.55;34.75;;;;;;;2.25;100.00;103614.66;5342170;27;20043;-85
2022/01/14 10:48:43;;;;;;;81.72;32.33;;;;;;;2.26;100.00;103618.16;5348772;27;20028;-86
2022/01/14 10:51:17;;;;;;;87.25;34.72;;;;;;;2.26;100.00;103602.38;5349049;27;20038;-86
2022/01/14 10:53:51;;;;;;;70.63;30.58;;;;;;;2.37;100.00;103611.00;5350508;27;20032;-86
2022/01/14 10:56:27;;;;;;;74.78;32.47;;;;;;;2.55;100.00;103623.03;5339504;27;20020;-86
2022/01/14 10:58:59;;;;;;;73.70;32.28;;;;;;;2.61;100.00;103619.44;5329034;27;20048;-86
2022/01/14 11:01:32;;;;;;;61.90;31.85;;;;;;;2.64;100.00;103625.53;5330843;27;20054;-86
2022/01/14 11:04:11;;;;;;;63.88;31.58;;;;;;;2.71;100.00;103620.19;5348590;27;20515;-85
2022/01/14 11:06:42;;;;;;;62.85;30.77;;;;;;;2.65;100.00;103618.50;5346472;27;20110;-85
2022/01/14 11:09:18;;;;;;;57.45;29.85;;;;;;;2.73;100.00;103603.44;5349838;27;20118;-85
2022/01/14 11:11:50;;;;;;;57.28;31.08;;;;;;;2.58;100.00;103601.91;5349751;27;20023;-85
2022/01/14 11:14:22;;;;;;;54.15;29.77;;;;;;;2.71;100.00;103602.59;5347940;27;20051;-85
2022/01/14 11:16:53;;;;;;;60.42;31.40;;;;;;;2.83;100.00;103607.66;5347081;27;20023;-85
2022/01/14 11:19:25;;;;;;;63.28;33.65;;;;;;;2.72;100.00;103588.53;5349693;27;20433;-85
2022/01/14 11:24:48;;;;;;;62.55;33.72;;;;;;;2.78;100.00;103598.97;5348867;27;20048;-85
2022/01/14 11:27:21;;;;;;;58.67;31.52;;;;;;;3.00;100.00;103603.91;5349163;27;20035;-85
2022/01/14 11:29:58;;;;;;;64.55;34.97;;;;;;;2.97;100.00;103591.63;5341088;27;20039;-86
2022/01/14 11:32:52;;;;;;;54.53;32.58;;;;;;;3.20;100.00;103603.56;5326081;28;20030;-85
2022/01/14 11:35:25;;;;;;;58.30;32.20;;;;;;;3.06;100.00;103602.94;5327083;28;20070;-85
2022/01/14 11:37:57;;;;;;;48.80;29.13;;;;;;;3.20;100.00;103593.00;5327747;27;20038;-85
2022/01/14 11:40:48;;;;;;;51.83;30.60;;;;;;;3.24;100.00;103602.59;5327037;27;20058;-85
2022/01/14 11:43:46;;;;;;;51.22;29.90;;;;;;;3.31;100.00;103595.44;5327907;27;20028;-85
2022/01/14 11:46:32;;;;;;;;;;;;;;;3.55;100.00;103602.03;5346977;27;20475;-85
2022/01/14 11:49:32;;;;;;;48.80;28.70;;;;;;;3.45;100.00;103593.41;5349029;27;19995;-85
2022/01/14 11:52:08;;;;;;;48.25;29.63;;;;;;;3.44;100.00;103601.34;5345476;27;20084;-85
2022/01/14 11:54:42;;;;;;;46.03;29.35;;;;;;;3.44;100.00;103586.41;5347277;27;20019;-85